sensor_id;sensor_type;location;lat;lon;timestamp;P1;durP1;ratioP1;P2;durP2;ratioP2
29534;SDS011;16475;52.650;8.116;2023-02-12T00:02:04;4.03;;;3.70;;
29534;SDS011;16475;52.650;8.116;2023-02-12T00:04:29;3.90;;;3.53;;
29534;SDS011;16475;52.650;8.116;2023-02-12T00:06:54;3.30;;;3.07;;
29534;SDS011;16475;52.650;8.116;2023-02-12T00:09:20;4.87;;;3.30;;
29534;SDS011;16475;52.650;8.116;2023-02-12T00:11:45;5.23;;;4.00;;
29534;SDS011;16475;52.650;8.116;2023-02-12T00:14:10;7.60;;;5.13;;
29534;SDS011;16475;52.650;8.116;2023-02-12T00:16:36;10.60;;;4.70;;
29534;SDS011;16475;52.650;8.116;2023-02-12T00:19:01;7.33;;;3.27;;
29534;SDS011;16475;52.650;8.116;2023-02-12T00:21:26;6.17;;;4.60;;
29534;SDS011;16475;52.650;8.116;2023-02-12T00:23:52;10.97;;;4.73;;
29534;SDS011;16475;52.650;8.116;2023-02-12T00:26:18;19.30;;;4.90;;
29534;SDS011;16475;52.650;8.116;2023-02-12T00:28:45;3.85;;;3.22;;
29534;SDS011;16475;52.650;8.116;2023-02-12T00:31:43;7.60;;;4.57;;
29534;SDS011;16475;52.650;8.116;2023-02-12T00:34:02;13.25;;;4.40;;
29534;SDS011;16475;52.650;8.116;2023-02-12T00:36:29;9.20;;;4.60;;
29534;SDS011;16475;52.650;8.116;2023-02-12T00:38:55;6.57;;;3.55;;
29534;SDS011;16475;52.650;8.116;2023-02-12T00:41:21;4.57;;;3.45;;
29534;SDS011;16475;52.650;8.116;2023-02-12T00:43:47;5.13;;;3.60;;
29534;SDS011;16475;52.650;8.116;2023-02-12T00:46:13;3.23;;;2.93;;
29534;SDS011;16475;52.650;8.116;2023-02-12T00:48:38;8.43;;;3.63;;
29534;SDS011;16475;52.650;8.116;2023-02-12T00:51:03;5.57;;;3.27;;
29534;SDS011;16475;52.650;8.116;2023-02-12T00:53:30;16.40;;;6.20;;
29534;SDS011;16475;52.650;8.116;2023-02-12T00:55:55;3.80;;;3.47;;
29534;SDS011;16475;52.650;8.116;2023-02-12T00:58:21;9.53;;;4.57;;
29534;SDS011;16475;52.650;8.116;2023-02-12T01:00:46;3.50;;;3.20;;
29534;SDS011;16475;52.650;8.116;2023-02-12T01:03:12;6.20;;;4.60;;
29534;SDS011;16475;52.650;8.116;2023-02-12T01:05:37;21.77;;;4.60;;
29534;SDS011;16475;52.650;8.116;2023-02-12T01:08:03;5.70;;;3.83;;
29534;SDS011;16475;52.650;8.116;2023-02-12T01:10:29;7.30;;;3.27;;
29534;SDS011;16475;52.650;8.116;2023-02-12T01:12:55;9.70;;;3.33;;
29534;SDS011;16475;52.650;8.116;2023-02-12T01:15:20;10.17;;;5.13;;
29534;SDS011;16475;52.650;8.116;2023-02-12T01:17:46;13.27;;;5.07;;
29534;SDS011;16475;52.650;8.116;2023-02-12T01:20:12;21.33;;;4.60;;
29534;SDS011;16475;52.650;8.116;2023-02-12T01:22:41;6.03;;;4.00;;
29534;SDS011;16475;52.650;8.116;2023-02-12T01:25:06;9.37;;;4.57;;
29534;SDS011;16475;52.650;8.116;2023-02-12T01:27:32;5.90;;;4.27;;
29534;SDS011;16475;52.650;8.116;2023-02-12T01:29:57;13.90;;;4.20;;
29534;SDS011;16475;52.650;8.116;2023-02-12T01:32:23;4.20;;;3.80;;
29534;SDS011;16475;52.650;8.116;2023-02-12T01:34:48;4.57;;;4.13;;
29534;SDS011;16475;52.650;8.116;2023-02-12T01:37:14;11.20;;;5.10;;
29534;SDS011;16475;52.650;8.116;2023-02-12T01:39:39;3.87;;;3.30;;
29534;SDS011;16475;52.650;8.116;2023-02-12T01:42:04;3.53;;;3.33;;
29534;SDS011;16475;52.650;8.116;2023-02-12T01:44:31;30.27;;;4.80;;
29534;SDS011;16475;52.650;8.116;2023-02-12T01:47:03;30.50;;;4.78;;
29534;SDS011;16475;52.650;8.116;2023-02-12T01:49:37;15.82;;;3.20;;
29534;SDS011;16475;52.650;8.116;2023-02-12T01:52:05;16.27;;;5.55;;
29534;SDS011;16475;52.650;8.116;2023-02-12T01:54:33;7.88;;;4.32;;
29534;SDS011;16475;52.650;8.116;2023-02-12T01:57:00;4.63;;;3.42;;
29534;SDS011;16475;52.650;8.116;2023-02-12T01:59:26;32.75;;;6.68;;
29534;SDS011;16475;52.650;8.116;2023-02-12T02:01:52;78.50;;;6.10;;
29534;SDS011;16475;52.650;8.116;2023-02-12T02:04:19;8.10;;;5.07;;
29534;SDS011;16475;52.650;8.116;2023-02-12T02:06:49;5.93;;;4.30;;
29534;SDS011;16475;52.650;8.116;2023-02-12T02:09:17;4.25;;;3.83;;
29534;SDS011;16475;52.650;8.116;2023-02-12T02:11:43;6.95;;;4.85;;
29534;SDS011;16475;52.650;8.116;2023-02-12T02:14:28;6.72;;;5.32;;
29534;SDS011;16475;52.650;8.116;2023-02-12T02:27:57;33.78;;;4.97;;
29534;SDS011;16475;52.650;8.116;2023-02-12T02:30:39;5.40;;;4.90;;
29534;SDS011;16475;52.650;8.116;2023-02-12T02:35:44;6.70;;;5.20;;
29534;SDS011;16475;52.650;8.116;2023-02-12T02:38:23;5.45;;;4.88;;
29534;SDS011;16475;52.650;8.116;2023-02-12T02:40:55;15.68;;;4.43;;
29534;SDS011;16475;52.650;8.116;2023-02-12T02:43:34;8.38;;;5.45;;
29534;SDS011;16475;52.650;8.116;2023-02-12T02:46:30;7.25;;;5.00;;
29534;SDS011;16475;52.650;8.116;2023-02-12T02:49:09;5.10;;;4.32;;
29534;SDS011;16475;52.650;8.116;2023-02-12T02:51:40;10.68;;;6.05;;
29534;SDS011;16475;52.650;8.116;2023-02-12T02:54:12;4.25;;;3.95;;
29534;SDS011;16475;52.650;8.116;2023-02-12T02:56:40;9.63;;;5.10;;
29534;SDS011;16475;52.650;8.116;2023-02-12T02:59:09;21.88;;;6.32;;
29534;SDS011;16475;52.650;8.116;2023-02-12T03:10:17;36.38;;;7.28;;
29534;SDS011;16475;52.650;8.116;2023-02-12T03:12:33;8.68;;;4.82;;
29534;SDS011;16475;52.650;8.116;2023-02-12T03:17:55;17.23;;;4.43;;
29534;SDS011;16475;52.650;8.116;2023-02-12T03:20:27;8.00;;;4.55;;
29534;SDS011;16475;52.650;8.116;2023-02-12T03:22:56;42.15;;;8.70;;
29534;SDS011;16475;52.650;8.116;2023-02-12T03:25:25;9.50;;;4.80;;
29534;SDS011;16475;52.650;8.116;2023-02-12T03:27:56;15.52;;;7.07;;
29534;SDS011;16475;52.650;8.116;2023-02-12T03:30:26;5.75;;;4.53;;
29534;SDS011;16475;52.650;8.116;2023-02-12T03:33:01;6.32;;;4.70;;
29534;SDS011;16475;52.650;8.116;2023-02-12T03:35:50;6.55;;;5.88;;
29534;SDS011;16475;52.650;8.116;2023-02-12T03:38:35;16.45;;;5.78;;
29534;SDS011;16475;52.650;8.116;2023-02-12T03:41:05;10.82;;;5.25;;
29534;SDS011;16475;52.650;8.116;2023-02-12T03:46:21;16.23;;;6.68;;
29534;SDS011;16475;52.650;8.116;2023-02-12T03:51:37;6.53;;;4.43;;
29534;SDS011;16475;52.650;8.116;2023-02-12T03:54:04;12.27;;;5.53;;
29534;SDS011;16475;52.650;8.116;2023-02-12T03:56:33;8.55;;;3.50;;
29534;SDS011;16475;52.650;8.116;2023-02-12T03:59:03;5.10;;;4.53;;
29534;SDS011;16475;52.650;8.116;2023-02-12T04:01:30;18.42;;;4.78;;
29534;SDS011;16475;52.650;8.116;2023-02-12T04:03:56;11.48;;;6.07;;
29534;SDS011;16475;52.650;8.116;2023-02-12T04:06:24;5.22;;;4.30;;
29534;SDS011;16475;52.650;8.116;2023-02-12T04:08:52;13.75;;;5.85;;
29534;SDS011;16475;52.650;8.116;2023-02-12T04:11:24;6.55;;;4.85;;
29534;SDS011;16475;52.650;8.116;2023-02-12T04:27:57;8.80;;;4.43;;
29534;SDS011;16475;52.650;8.116;2023-02-12T04:30:32;7.80;;;5.60;;
29534;SDS011;16475;52.650;8.116;2023-02-12T04:33:09;7.95;;;5.63;;
29534;SDS011;16475;52.650;8.116;2023-02-12T04:36:42;15.73;;;6.55;;
29534;SDS011;16475;52.650;8.116;2023-02-12T04:38:45;19.55;;;4.18;;
29534;SDS011;16475;52.650;8.116;2023-02-12T04:41:14;24.52;;;4.32;;
29534;SDS011;16475;52.650;8.116;2023-02-12T04:43:40;17.17;;;5.40;;
29534;SDS011;16475;52.650;8.116;2023-02-12T04:46:06;18.70;;;5.83;;
29534;SDS011;16475;52.650;8.116;2023-02-12T04:48:32;7.95;;;6.05;;
29534;SDS011;16475;52.650;8.116;2023-02-12T04:50:58;20.85;;;3.90;;
29534;SDS011;16475;52.650;8.116;2023-02-12T04:53:24;32.25;;;6.65;;
29534;SDS011;16475;52.650;8.116;2023-02-12T04:55:49;16.33;;;5.13;;
29534;SDS011;16475;52.650;8.116;2023-02-12T04:58:15;36.97;;;9.00;;
29534;SDS011;16475;52.650;8.116;2023-02-12T05:00:40;13.20;;;8.27;;
29534;SDS011;16475;52.650;8.116;2023-02-12T05:03:06;15.70;;;5.80;;
29534;SDS011;16475;52.650;8.116;2023-02-12T05:05:31;11.00;;;5.77;;
29534;SDS011;16475;52.650;8.116;2023-02-12T05:07:56;7.93;;;6.13;;
29534;SDS011;16475;52.650;8.116;2023-02-12T05:10:22;7.70;;;5.20;;
29534;SDS011;16475;52.650;8.116;2023-02-12T05:12:50;7.03;;;4.67;;
29534;SDS011;16475;52.650;8.116;2023-02-12T05:15:16;5.80;;;4.40;;
29534;SDS011;16475;52.650;8.116;2023-02-12T05:17:41;13.00;;;5.93;;
29534;SDS011;16475;52.650;8.116;2023-02-12T05:20:07;9.60;;;5.13;;
29534;SDS011;16475;52.650;8.116;2023-02-12T05:22:32;5.17;;;4.03;;
29534;SDS011;16475;52.650;8.116;2023-02-12T05:24:58;27.77;;;6.60;;
29534;SDS011;16475;52.650;8.116;2023-02-12T05:27:23;5.07;;;4.20;;
29534;SDS011;16475;52.650;8.116;2023-02-12T05:29:48;9.97;;;4.20;;
29534;SDS011;16475;52.650;8.116;2023-02-12T05:32:14;20.33;;;5.20;;
29534;SDS011;16475;52.650;8.116;2023-02-12T05:34:39;8.20;;;4.47;;
29534;SDS011;16475;52.650;8.116;2023-02-12T05:37:04;23.20;;;6.10;;
29534;SDS011;16475;52.650;8.116;2023-02-12T05:39:30;11.50;;;6.37;;
29534;SDS011;16475;52.650;8.116;2023-02-12T05:41:55;10.63;;;6.67;;
29534;SDS011;16475;52.650;8.116;2023-02-12T05:44:20;22.93;;;4.63;;
29534;SDS011;16475;52.650;8.116;2023-02-12T05:46:46;9.03;;;4.70;;
29534;SDS011;16475;52.650;8.116;2023-02-12T05:49:11;8.77;;;3.80;;
29534;SDS011;16475;52.650;8.116;2023-02-12T05:51:38;9.30;;;6.37;;
29534;SDS011;16475;52.650;8.116;2023-02-12T05:54:04;30.10;;;6.65;;
29534;SDS011;16475;52.650;8.116;2023-02-12T05:56:31;19.33;;;7.30;;
29534;SDS011;16475;52.650;8.116;2023-02-12T05:58:58;20.48;;;5.45;;
29534;SDS011;16475;52.650;8.116;2023-02-12T06:01:30;9.90;;;4.53;;
29534;SDS011;16475;52.650;8.116;2023-02-12T06:04:03;18.98;;;6.20;;
29534;SDS011;16475;52.650;8.116;2023-02-12T06:06:30;34.58;;;7.32;;
29534;SDS011;16475;52.650;8.116;2023-02-12T06:08:56;6.63;;;5.55;;
29534;SDS011;16475;52.650;8.116;2023-02-12T06:11:21;17.30;;;6.97;;
29534;SDS011;16475;52.650;8.116;2023-02-12T06:13:47;23.70;;;7.20;;
29534;SDS011;16475;52.650;8.116;2023-02-12T06:16:20;6.80;;;5.20;;
29534;SDS011;16475;52.650;8.116;2023-02-12T06:18:50;7.55;;;3.97;;
29534;SDS011;16475;52.650;8.116;2023-02-12T06:21:16;9.63;;;5.50;;
29534;SDS011;16475;52.650;8.116;2023-02-12T06:23:42;6.22;;;5.18;;
29534;SDS011;16475;52.650;8.116;2023-02-12T06:26:08;4.27;;;3.90;;
29534;SDS011;16475;52.650;8.116;2023-02-12T06:28:33;10.27;;;6.33;;
29534;SDS011;16475;52.650;8.116;2023-02-12T06:30:58;9.80;;;5.87;;
29534;SDS011;16475;52.650;8.116;2023-02-12T06:33:24;55.13;;;8.03;;
29534;SDS011;16475;52.650;8.116;2023-02-12T06:35:49;23.23;;;7.33;;
29534;SDS011;16475;52.650;8.116;2023-02-12T06:38:15;14.77;;;7.30;;
29534;SDS011;16475;52.650;8.116;2023-02-12T06:40:40;15.03;;;6.20;;
29534;SDS011;16475;52.650;8.116;2023-02-12T06:43:05;8.00;;;5.10;;
29534;SDS011;16475;52.650;8.116;2023-02-12T06:45:31;39.77;;;7.77;;
29534;SDS011;16475;52.650;8.116;2023-02-12T06:47:57;8.32;;;7.22;;
29534;SDS011;16475;52.650;8.116;2023-02-12T06:50:22;19.73;;;8.60;;
29534;SDS011;16475;52.650;8.116;2023-02-12T06:52:48;8.03;;;6.10;;
29534;SDS011;16475;52.650;8.116;2023-02-12T06:55:13;20.53;;;6.60;;
29534;SDS011;16475;52.650;8.116;2023-02-12T06:57:39;18.90;;;7.03;;
29534;SDS011;16475;52.650;8.116;2023-02-12T07:00:04;13.23;;;6.70;;
29534;SDS011;16475;52.650;8.116;2023-02-12T07:02:30;20.52;;;7.90;;
29534;SDS011;16475;52.650;8.116;2023-02-12T07:04:55;28.90;;;7.33;;
29534;SDS011;16475;52.650;8.116;2023-02-12T07:07:21;29.43;;;10.17;;
29534;SDS011;16475;52.650;8.116;2023-02-12T07:09:46;31.77;;;6.23;;
29534;SDS011;16475;52.650;8.116;2023-02-12T07:12:11;38.83;;;9.30;;
29534;SDS011;16475;52.650;8.116;2023-02-12T07:14:36;18.40;;;8.93;;
29534;SDS011;16475;52.650;8.116;2023-02-12T07:17:02;11.97;;;7.87;;
29534;SDS011;16475;52.650;8.116;2023-02-12T07:19:28;21.73;;;8.40;;
29534;SDS011;16475;52.650;8.116;2023-02-12T07:21:54;21.65;;;8.82;;
29534;SDS011;16475;52.650;8.116;2023-02-12T07:24:19;33.87;;;7.93;;
29534;SDS011;16475;52.650;8.116;2023-02-12T07:26:44;48.40;;;8.73;;
29534;SDS011;16475;52.650;8.116;2023-02-12T07:29:10;13.53;;;7.07;;
29534;SDS011;16475;52.650;8.116;2023-02-12T07:31:36;21.90;;;8.75;;
29534;SDS011;16475;52.650;8.116;2023-02-12T07:34:02;19.20;;;9.80;;
29534;SDS011;16475;52.650;8.116;2023-02-12T07:36:28;25.57;;;8.53;;
29534;SDS011;16475;52.650;8.116;2023-02-12T07:38:55;25.15;;;8.18;;
29534;SDS011;16475;52.650;8.116;2023-02-12T07:41:28;20.45;;;7.60;;
29534;SDS011;16475;52.650;8.116;2023-02-12T07:43:55;25.70;;;12.90;;
29534;SDS011;16475;52.650;8.116;2023-02-12T07:48:54;14.45;;;9.00;;
29534;SDS011;16475;52.650;8.116;2023-02-12T07:51:20;22.38;;;7.43;;
29534;SDS011;16475;52.650;8.116;2023-02-12T07:53:46;17.80;;;9.77;;
29534;SDS011;16475;52.650;8.116;2023-02-12T07:56:16;40.20;;;9.18;;
29534;SDS011;16475;52.650;8.116;2023-02-12T07:58:44;53.75;;;9.38;;
29534;SDS011;16475;52.650;8.116;2023-02-12T08:01:15;22.20;;;10.23;;
29534;SDS011;16475;52.650;8.116;2023-02-12T08:03:42;12.23;;;9.40;;
29534;SDS011;16475;52.650;8.116;2023-02-12T08:06:09;21.90;;;9.60;;
29534;SDS011;16475;52.650;8.116;2023-02-12T08:08:35;21.80;;;10.02;;
29534;SDS011;16475;52.650;8.116;2023-02-12T08:11:03;24.90;;;9.23;;
29534;SDS011;16475;52.650;8.116;2023-02-12T08:13:30;24.10;;;10.82;;
29534;SDS011;16475;52.650;8.116;2023-02-12T08:15:59;37.50;;;11.63;;
29534;SDS011;16475;52.650;8.116;2023-02-12T08:18:25;29.48;;;13.85;;
29534;SDS011;16475;52.650;8.116;2023-02-12T08:20:50;27.00;;;9.83;;
29534;SDS011;16475;52.650;8.116;2023-02-12T08:23:16;50.33;;;11.87;;
29534;SDS011;16475;52.650;8.116;2023-02-12T08:25:41;27.07;;;8.80;;
29534;SDS011;16475;52.650;8.116;2023-02-12T08:28:06;21.03;;;8.97;;
29534;SDS011;16475;52.650;8.116;2023-02-12T08:30:32;25.90;;;12.80;;
29534;SDS011;16475;52.650;8.116;2023-02-12T08:32:57;18.17;;;10.20;;
29534;SDS011;16475;52.650;8.116;2023-02-12T08:35:22;24.70;;;10.03;;
29534;SDS011;16475;52.650;8.116;2023-02-12T08:37:48;38.33;;;10.20;;
29534;SDS011;16475;52.650;8.116;2023-02-12T08:40:13;19.10;;;10.37;;
29534;SDS011;16475;52.650;8.116;2023-02-12T08:42:38;14.37;;;8.70;;
29534;SDS011;16475;52.650;8.116;2023-02-12T08:45:04;25.97;;;10.00;;
29534;SDS011;16475;52.650;8.116;2023-02-12T08:47:29;22.70;;;8.33;;
29534;SDS011;16475;52.650;8.116;2023-02-12T08:49:54;16.37;;;7.80;;
29534;SDS011;16475;52.650;8.116;2023-02-12T08:52:20;25.93;;;12.17;;
29534;SDS011;16475;52.650;8.116;2023-02-12T08:54:45;25.37;;;10.27;;
29534;SDS011;16475;52.650;8.116;2023-02-12T08:57:10;101.20;;;10.20;;
29534;SDS011;16475;52.650;8.116;2023-02-12T08:59:36;19.60;;;8.93;;
29534;SDS011;16475;52.650;8.116;2023-02-12T09:02:01;17.47;;;9.23;;
29534;SDS011;16475;52.650;8.116;2023-02-12T09:04:28;17.08;;;9.98;;
29534;SDS011;16475;52.650;8.116;2023-02-12T09:06:54;16.47;;;8.73;;
29534;SDS011;16475;52.650;8.116;2023-02-12T09:09:20;11.85;;;7.80;;
29534;SDS011;16475;52.650;8.116;2023-02-12T09:11:46;12.20;;;6.13;;
29534;SDS011;16475;52.650;8.116;2023-02-12T09:14:12;15.13;;;7.93;;
29534;SDS011;16475;52.650;8.116;2023-02-12T09:16:39;11.93;;;8.07;;
29534;SDS011;16475;52.650;8.116;2023-02-12T09:19:05;9.33;;;7.13;;
29534;SDS011;16475;52.650;8.116;2023-02-12T09:21:30;14.83;;;7.40;;
29534;SDS011;16475;52.650;8.116;2023-02-12T09:23:56;29.70;;;9.90;;
29534;SDS011;16475;52.650;8.116;2023-02-12T09:26:22;56.13;;;6.83;;
29534;SDS011;16475;52.650;8.116;2023-02-12T09:28:50;14.18;;;7.38;;
29534;SDS011;16475;52.650;8.116;2023-02-12T09:31:16;15.10;;;8.43;;
29534;SDS011;16475;52.650;8.116;2023-02-12T09:33:44;18.80;;;8.35;;
29534;SDS011;16475;52.650;8.116;2023-02-12T09:36:11;11.27;;;4.40;;
29534;SDS011;16475;52.650;8.116;2023-02-12T09:38:38;10.63;;;7.45;;
29534;SDS011;16475;52.650;8.116;2023-02-12T09:51:53;28.63;;;6.25;;
29534;SDS011;16475;52.650;8.116;2023-02-12T09:54:20;12.68;;;7.10;;
29534;SDS011;16475;52.650;8.116;2023-02-12T09:56:48;17.08;;;4.53;;
29534;SDS011;16475;52.650;8.116;2023-02-12T09:59:21;9.30;;;5.43;;
29534;SDS011;16475;52.650;8.116;2023-02-12T10:01:59;5.07;;;4.18;;
29534;SDS011;16475;52.650;8.116;2023-02-12T10:04:25;4.83;;;4.37;;
29534;SDS011;16475;52.650;8.116;2023-02-12T10:06:58;16.67;;;6.60;;
29534;SDS011;16475;52.650;8.116;2023-02-12T10:12:06;5.40;;;4.88;;
29534;SDS011;16475;52.650;8.116;2023-02-12T10:22:59;13.95;;;6.13;;
29534;SDS011;16475;52.650;8.116;2023-02-12T10:25:43;6.43;;;4.55;;
29534;SDS011;16475;52.650;8.116;2023-02-12T10:28:12;10.13;;;5.55;;
29534;SDS011;16475;52.650;8.116;2023-02-12T10:30:43;6.82;;;4.53;;
29534;SDS011;16475;52.650;8.116;2023-02-12T10:33:22;16.10;;;5.57;;
29534;SDS011;16475;52.650;8.116;2023-02-12T10:35:53;6.05;;;4.82;;
29534;SDS011;16475;52.650;8.116;2023-02-12T10:38:25;22.48;;;7.05;;
29534;SDS011;16475;52.650;8.116;2023-02-12T10:40:53;11.70;;;6.93;;
29534;SDS011;16475;52.650;8.116;2023-02-12T10:43:21;7.78;;;5.93;;
29534;SDS011;16475;52.650;8.116;2023-02-12T10:45:47;10.37;;;6.37;;
29534;SDS011;16475;52.650;8.116;2023-02-12T10:48:36;7.05;;;6.22;;
29534;SDS011;16475;52.650;8.116;2023-02-12T10:51:05;7.40;;;5.07;;
29534;SDS011;16475;52.650;8.116;2023-02-12T10:53:43;4.68;;;4.05;;
29534;SDS011;16475;52.650;8.116;2023-02-12T10:56:17;9.63;;;5.68;;
29534;SDS011;16475;52.650;8.116;2023-02-12T11:03:49;5.35;;;4.85;;
29534;SDS011;16475;52.650;8.116;2023-02-12T11:06:17;19.30;;;7.25;;
29534;SDS011;16475;52.650;8.116;2023-02-12T11:08:44;15.77;;;6.25;;
29534;SDS011;16475;52.650;8.116;2023-02-12T11:11:15;8.90;;;5.10;;
29534;SDS011;16475;52.650;8.116;2023-02-12T11:13:55;15.25;;;6.90;;
29534;SDS011;16475;52.650;8.116;2023-02-12T11:16:26;11.15;;;6.65;;
29534;SDS011;16475;52.650;8.116;2023-02-12T11:19:04;5.20;;;4.70;;
29534;SDS011;16475;52.650;8.116;2023-02-12T11:21:30;5.70;;;4.63;;
29534;SDS011;16475;52.650;8.116;2023-02-12T11:23:56;16.67;;;6.30;;
29534;SDS011;16475;52.650;8.116;2023-02-12T11:26:45;8.98;;;5.10;;
29534;SDS011;16475;52.650;8.116;2023-02-12T11:29:18;10.20;;;4.47;;
29534;SDS011;16475;52.650;8.116;2023-02-12T11:32:00;12.95;;;6.40;;
29534;SDS011;16475;52.650;8.116;2023-02-12T11:34:32;17.85;;;6.75;;
29534;SDS011;16475;52.650;8.116;2023-02-12T11:36:58;7.65;;;4.07;;
29534;SDS011;16475;52.650;8.116;2023-02-12T11:41:57;7.32;;;3.90;;
29534;SDS011;16475;52.650;8.116;2023-02-12T11:47:01;12.43;;;5.95;;
29534;SDS011;16475;52.650;8.116;2023-02-12T11:49:33;14.80;;;4.90;;
29534;SDS011;16475;52.650;8.116;2023-02-12T11:52:02;7.65;;;5.28;;
29534;SDS011;16475;52.650;8.116;2023-02-12T11:54:29;15.90;;;6.25;;
29534;SDS011;16475;52.650;8.116;2023-02-12T11:56:58;16.33;;;5.20;;
29534;SDS011;16475;52.650;8.116;2023-02-12T12:02:46;8.40;;;5.00;;
29534;SDS011;16475;52.650;8.116;2023-02-12T12:04:53;12.35;;;6.28;;
29534;SDS011;16475;52.650;8.116;2023-02-12T12:07:31;9.13;;;5.70;;
29534;SDS011;16475;52.650;8.116;2023-02-12T12:10:12;14.40;;;5.70;;
29534;SDS011;16475;52.650;8.116;2023-02-12T12:12:50;10.43;;;5.78;;
29534;SDS011;16475;52.650;8.116;2023-02-12T12:15:25;8.07;;;5.00;;
29534;SDS011;16475;52.650;8.116;2023-02-12T12:18:31;13.25;;;6.38;;
29534;SDS011;16475;52.650;8.116;2023-02-12T12:24:16;11.27;;;5.07;;
29534;SDS011;16475;52.650;8.116;2023-02-12T12:26:45;10.50;;;6.07;;
29534;SDS011;16475;52.650;8.116;2023-02-12T12:31:47;15.63;;;7.60;;
29534;SDS011;16475;52.650;8.116;2023-02-12T12:34:21;5.63;;;4.40;;
29534;SDS011;16475;52.650;8.116;2023-02-12T12:40:18;9.48;;;5.90;;
29534;SDS011;16475;52.650;8.116;2023-02-12T12:42:45;11.90;;;6.03;;
29534;SDS011;16475;52.650;8.116;2023-02-12T12:48:06;14.48;;;6.40;;
29534;SDS011;16475;52.650;8.116;2023-02-12T12:58:52;7.72;;;4.03;;
29534;SDS011;16475;52.650;8.116;2023-02-12T13:15:16;12.75;;;5.57;;
29534;SDS011;16475;52.650;8.116;2023-02-12T13:17:49;12.63;;;5.00;;
29534;SDS011;16475;52.650;8.116;2023-02-12T13:23:27;11.43;;;6.38;;
29534;SDS011;16475;52.650;8.116;2023-02-12T13:25:58;7.75;;;4.65;;
29534;SDS011;16475;52.650;8.116;2023-02-12T13:28:52;11.90;;;5.80;;
29534;SDS011;16475;52.650;8.116;2023-02-12T13:31:20;11.63;;;3.90;;
29534;SDS011;16475;52.650;8.116;2023-02-12T13:33:51;10.15;;;5.63;;
29534;SDS011;16475;52.650;8.116;2023-02-12T13:36:19;12.50;;;5.20;;
29534;SDS011;16475;52.650;8.116;2023-02-12T13:38:46;15.83;;;4.50;;
29534;SDS011;16475;52.650;8.116;2023-02-12T13:41:14;17.02;;;5.97;;
29534;SDS011;16475;52.650;8.116;2023-02-12T13:44:03;6.13;;;4.43;;
29534;SDS011;16475;52.650;8.116;2023-02-12T13:46:33;10.00;;;4.15;;
29534;SDS011;16475;52.650;8.116;2023-02-12T13:52:01;11.27;;;5.45;;
29534;SDS011;16475;52.650;8.116;2023-02-12T13:57:26;9.70;;;4.95;;
29534;SDS011;16475;52.650;8.116;2023-02-12T13:59:52;7.97;;;4.53;;
29534;SDS011;16475;52.650;8.116;2023-02-12T14:04:56;10.23;;;4.35;;
29534;SDS011;16475;52.650;8.116;2023-02-12T14:07:23;9.05;;;5.90;;
29534;SDS011;16475;52.650;8.116;2023-02-12T14:12:16;9.00;;;4.83;;
29534;SDS011;16475;52.650;8.116;2023-02-12T14:14:55;10.15;;;5.13;;
29534;SDS011;16475;52.650;8.116;2023-02-12T14:37:50;5.10;;;3.17;;
29534;SDS011;16475;52.650;8.116;2023-02-12T14:40:35;10.75;;;5.50;;
29534;SDS011;16475;52.650;8.116;2023-02-12T14:43:49;7.97;;;2.92;;
29534;SDS011;16475;52.650;8.116;2023-02-12T14:45:50;4.22;;;3.70;;
29534;SDS011;16475;52.650;8.116;2023-02-12T14:51:07;3.67;;;3.03;;
29534;SDS011;16475;52.650;8.116;2023-02-12T14:53:38;10.35;;;4.50;;
29534;SDS011;16475;52.650;8.116;2023-02-12T14:56:04;4.17;;;3.70;;
29534;SDS011;16475;52.650;8.116;2023-02-12T14:58:33;8.57;;;4.38;;
29534;SDS011;16475;52.650;8.116;2023-02-12T15:00:59;11.85;;;4.38;;
29534;SDS011;16475;52.650;8.116;2023-02-12T15:03:31;5.70;;;3.87;;
29534;SDS011;16475;52.650;8.116;2023-02-12T15:06:06;3.70;;;3.22;;
29534;SDS011;16475;52.650;8.116;2023-02-12T15:11:20;5.60;;;3.20;;
29534;SDS011;16475;52.650;8.116;2023-02-12T15:14:03;3.08;;;2.75;;
29534;SDS011;16475;52.650;8.116;2023-02-12T15:16:44;8.65;;;3.58;;
29534;SDS011;16475;52.650;8.116;2023-02-12T15:19:23;8.35;;;3.13;;
29534;SDS011;16475;52.650;8.116;2023-02-12T15:21:59;8.10;;;3.03;;
29534;SDS011;16475;52.650;8.116;2023-02-12T15:24:25;4.00;;;2.87;;
29534;SDS011;16475;52.650;8.116;2023-02-12T15:26:52;15.02;;;4.72;;
29534;SDS011;16475;52.650;8.116;2023-02-12T15:29:29;3.92;;;2.65;;
29534;SDS011;16475;52.650;8.116;2023-02-12T15:31:58;4.60;;;2.95;;
29534;SDS011;16475;52.650;8.116;2023-02-12T15:34:25;3.47;;;2.45;;
29534;SDS011;16475;52.650;8.116;2023-02-12T15:36:53;2.90;;;2.35;;
29534;SDS011;16475;52.650;8.116;2023-02-12T15:39:20;5.07;;;2.95;;
29534;SDS011;16475;52.650;8.116;2023-02-12T15:41:46;3.70;;;3.37;;
29534;SDS011;16475;52.650;8.116;2023-02-12T15:44:23;5.05;;;2.95;;
29534;SDS011;16475;52.650;8.116;2023-02-12T15:49:23;8.27;;;4.38;;
29534;SDS011;16475;52.650;8.116;2023-02-12T15:51:54;11.70;;;4.57;;
29534;SDS011;16475;52.650;8.116;2023-02-12T15:54:19;5.47;;;4.37;;
29534;SDS011;16475;52.650;8.116;2023-02-12T15:56:45;6.07;;;4.33;;
29534;SDS011;16475;52.650;8.116;2023-02-12T15:59:18;5.60;;;3.80;;
29534;SDS011;16475;52.650;8.116;2023-02-12T16:01:53;8.55;;;4.22;;
29534;SDS011;16475;52.650;8.116;2023-02-12T16:04:20;5.70;;;4.95;;
29534;SDS011;16475;52.650;8.116;2023-02-12T16:06:45;13.53;;;5.60;;
29534;SDS011;16475;52.650;8.116;2023-02-12T16:09:21;9.13;;;4.47;;
29534;SDS011;16475;52.650;8.116;2023-02-12T16:11:52;5.95;;;3.58;;
29534;SDS011;16475;52.650;8.116;2023-02-12T16:14:21;7.63;;;3.13;;
29534;SDS011;16475;52.650;8.116;2023-02-12T16:16:51;6.07;;;4.05;;
29534;SDS011;16475;52.650;8.116;2023-02-12T16:21:44;4.80;;;3.73;;
29534;SDS011;16475;52.650;8.116;2023-02-12T16:24:34;4.18;;;3.15;;
29534;SDS011;16475;52.650;8.116;2023-02-12T16:29:43;9.43;;;5.45;;
29534;SDS011;16475;52.650;8.116;2023-02-12T16:32:24;8.90;;;4.90;;
29534;SDS011;16475;52.650;8.116;2023-02-12T16:35:21;3.80;;;2.72;;
29534;SDS011;16475;52.650;8.116;2023-02-12T16:37:48;6.30;;;4.20;;
29534;SDS011;16475;52.650;8.116;2023-02-12T16:47:50;5.85;;;3.88;;
29534;SDS011;16475;52.650;8.116;2023-02-12T16:50:16;5.85;;;4.20;;
29534;SDS011;16475;52.650;8.116;2023-02-12T16:52:42;8.70;;;3.57;;
29534;SDS011;16475;52.650;8.116;2023-02-12T16:55:15;3.90;;;3.70;;
29534;SDS011;16475;52.650;8.116;2023-02-12T16:57:41;4.72;;;3.75;;
29534;SDS011;16475;52.650;8.116;2023-02-12T17:00:08;18.13;;;5.07;;
29534;SDS011;16475;52.650;8.116;2023-02-12T17:02:39;6.47;;;4.38;;
29534;SDS011;16475;52.650;8.116;2023-02-12T17:05:04;9.73;;;4.30;;
29534;SDS011;16475;52.650;8.116;2023-02-12T17:07:31;6.32;;;3.92;;
29534;SDS011;16475;52.650;8.116;2023-02-12T17:09:57;14.13;;;3.45;;
29534;SDS011;16475;52.650;8.116;2023-02-12T17:12:23;11.83;;;5.23;;
29534;SDS011;16475;52.650;8.116;2023-02-12T17:14:48;9.23;;;4.17;;
29534;SDS011;16475;52.650;8.116;2023-02-12T17:17:14;5.73;;;3.50;;
29534;SDS011;16475;52.650;8.116;2023-02-12T17:19:39;5.30;;;4.70;;
29534;SDS011;16475;52.650;8.116;2023-02-12T17:22:05;4.60;;;3.67;;
29534;SDS011;16475;52.650;8.116;2023-02-12T17:24:32;5.28;;;3.67;;
29534;SDS011;16475;52.650;8.116;2023-02-12T17:26:59;10.73;;;5.17;;
29534;SDS011;16475;52.650;8.116;2023-02-12T17:29:25;10.55;;;4.03;;
29534;SDS011;16475;52.650;8.116;2023-02-12T17:31:51;4.72;;;3.85;;
29534;SDS011;16475;52.650;8.116;2023-02-12T17:34:20;4.22;;;3.15;;
29534;SDS011;16475;52.650;8.116;2023-02-12T17:36:46;5.80;;;4.20;;
29534;SDS011;16475;52.650;8.116;2023-02-12T17:39:12;6.23;;;4.07;;
29534;SDS011;16475;52.650;8.116;2023-02-12T17:41:39;6.20;;;4.18;;
29534;SDS011;16475;52.650;8.116;2023-02-12T17:44:05;3.30;;;3.00;;